Terminal Aerodrome Forecast
Issued by NWS

Home | Current Version | Previous Version | Text Only | Print | Product List | Glossary On
Versions: 1 2 3 4 5 6 7 8 9 10 11 12 13 14
000
FTUS44 KSJT 181700
TAFSOA
TAF
KSOA 181739Z 1818/1918 16007KT P6SM FEW015 SCT040
     FM182300 15008KT P6SM VCTS BKN050CB
     FM190300 14005KT P6SM VCSH BKN050
     FM190600 12008KT P6SM SCT050 BKN200
      TEMPO 1911/1915 BKN018=

USA.gov is the U.S. government's official web portal to all federal, state and local government web resources and services.